Time;durP1;ratioP1;P1;durP2;ratioP2;P2;SDS_P1;SDS_P2;PMS_P1;PMS_P2;Temp;Humidity;BMP_temperature;BMP_pressure;BME280_temperature;BME280_humidity;BME280_pressure;Samples;Min_cycle;Max_cycle;Signal;HPM_P1;HPM_P2
2023/09/29 00:01:38;;;;;;;4.72;2.97;;;21.30;99.90;;;;;;5062321;28;20520;-80
2023/09/29 00:04:07;;;;;;;5.18;3.20;;;21.30;99.90;;;;;;5063813;28;20066;-82
2023/09/29 00:06:33;;;;;;;5.32;2.75;;;21.40;99.90;;;;;;5066720;28;20098;-81
2023/09/29 00:08:59;;;;;;;4.43;3.15;;;21.40;99.90;;;;;;5061830;28;20400;-81
2023/09/29 00:11:26;;;;;;;5.85;3.10;;;21.30;99.90;;;;;;5066374;28;20051;-81
2023/09/29 00:13:51;;;;;;;7.38;3.50;;;21.30;99.90;;;;;;5061403;28;20020;-81
2023/09/29 00:16:17;;;;;;;3.97;2.92;;;21.20;99.90;;;;;;5062960;28;20166;-80
2023/09/29 00:18:44;;;;;;;5.35;3.60;;;21.10;99.90;;;;;;5065574;28;20025;-82
2023/09/29 00:21:13;;;;;;;8.23;3.30;;;21.10;99.90;;;;;;5065740;28;20028;-82
2023/09/29 00:23:39;;;;;;;4.55;3.13;;;21.00;99.90;;;;;;5063277;28;20118;-79
2023/09/29 00:26:05;;;;;;;7.82;3.70;;;20.90;99.90;;;;;;5063786;28;20083;-82
2023/09/29 00:28:32;;;;;;;5.55;3.05;;;20.90;99.90;;;;;;5065920;28;20044;-80
2023/09/29 00:30:57;;;;;;;7.57;3.10;;;20.90;99.90;;;;;;5063326;28;20040;-81
2023/09/29 00:33:24;;;;;;;5.18;3.55;;;20.90;99.90;;;;;;5064882;28;20040;-81
2023/09/29 00:35:51;;;;;;;8.30;3.88;;;20.90;99.90;;;;;;5063507;28;20435;-80
2023/09/29 00:38:16;;;;;;;5.13;3.03;;;20.80;99.90;;;;;;5063558;28;20122;-80
2023/09/29 00:40:42;;;;;;;4.18;2.75;;;20.80;99.90;;;;;;5063076;28;20465;-80
2023/09/29 00:43:08;;;;;;;6.43;3.63;;;20.80;99.90;;;;;;5063715;28;20957;-81
2023/09/29 00:45:35;;;;;;;5.07;3.50;;;20.70;99.90;;;;;;5065766;28;20534;-81
2023/09/29 00:48:08;;;;;;;5.50;3.47;;;20.70;99.90;;;;;;5063083;28;20477;-80
2023/09/29 00:50:35;;;;;;;8.75;3.38;;;20.60;99.90;;;;;;5057849;28;20053;-79
2023/09/29 00:53:11;;;;;;;5.95;3.65;;;20.60;99.90;;;;;;5063504;28;20048;-80
2023/09/29 00:55:37;;;;;;;6.00;3.63;;;20.60;99.90;;;;;;5065667;28;20108;-79
2023/09/29 00:58:06;;;;;;;7.10;3.72;;;20.60;99.90;;;;;;5063051;28;20033;-81
2023/09/29 01:00:32;;;;;;;6.50;3.80;;;20.60;99.90;;;;;;5058514;28;20017;-81
2023/09/29 01:03:06;;;;;;;6.50;3.83;;;20.60;99.90;;;;;;5063325;28;20397;-80
2023/09/29 01:05:36;;;;;;;6.68;2.97;;;20.60;99.90;;;;;;5059390;28;20101;-80
2023/09/29 01:08:04;;;;;;;5.25;3.22;;;20.60;99.90;;;;;;5065260;28;20098;-80
2023/09/29 01:10:30;;;;;;;5.40;3.13;;;20.50;99.90;;;;;;5064093;28;20469;-83
2023/09/29 01:12:55;;;;;;;7.07;4.18;;;20.60;99.90;;;;;;5064734;28;20039;-80
2023/09/29 01:15:21;;;;;;;4.75;3.15;;;20.60;99.90;;;;;;5064011;28;20029;-82
2023/09/29 01:17:46;;;;;;;4.60;3.20;;;20.50;99.90;;;;;;5064896;28;20036;-81
2023/09/29 01:20:27;;;;;;;7.50;3.75;;;20.50;99.90;;;;;;5062871;28;20362;-82
2023/09/29 01:22:53;;;;;;;8.85;3.72;;;20.60;99.90;;;;;;5065469;28;20025;-81
2023/09/29 01:25:20;;;;;;;5.88;3.60;;;20.60;99.90;;;;;;5065952;28;20028;-80
2023/09/29 01:27:46;;;;;;;9.02;3.85;;;20.60;99.90;;;;;;5061139;28;20336;-82
2023/09/29 01:30:16;;;;;;;8.18;3.58;;;20.60;99.90;;;;;;5064013;28;20436;-81
2023/09/29 01:32:43;;;;;;;11.73;3.50;;;20.60;99.90;;;;;;5064899;28;20581;-80
2023/09/29 01:35:18;;;;;;;8.57;3.70;;;20.60;99.90;;;;;;5062791;28;20028;-80
2023/09/29 01:37:47;;;;;;;8.55;3.83;;;20.60;99.90;;;;;;5062745;28;20107;-83
2023/09/29 01:40:14;;;;;;;8.30;3.50;;;20.60;99.90;;;;;;5063181;28;20116;-80
2023/09/29 01:42:43;;;;;;;10.07;3.90;;;20.60;99.90;;;;;;5061510;28;20029;-79
2023/09/29 01:45:11;;;;;;;11.50;3.95;;;20.60;99.90;;;;;;5063049;28;20113;-79
2023/09/29 01:47:45;;;;;;;12.57;4.32;;;20.50;99.90;;;;;;5062416;28;20542;-83
2023/09/29 01:50:12;;;;;;;11.07;3.67;;;20.50;99.90;;;;;;5061132;28;20495;-81
2023/09/29 01:52:38;;;;;;;11.27;3.17;;;20.50;99.90;;;;;;5055122;28;20036;-80
2023/09/29 01:55:07;;;;;;;6.53;3.65;;;20.50;99.90;;;;;;5064305;28;20052;-80
2023/09/29 01:57:33;;;;;;;7.32;3.67;;;20.50;99.90;;;;;;5060936;28;20025;-82
2023/09/29 01:59:59;;;;;;;6.72;3.70;;;20.40;99.90;;;;;;5063159;28;20498;-79
2023/09/29 02:02:25;;;;;;;9.98;3.22;;;20.50;99.90;;;;;;5062300;28;20124;-81
2023/09/29 02:04:52;;;;;;;8.65;4.55;;;20.40;99.90;;;;;;5061585;28;20077;-80
2023/09/29 02:07:19;;;;;;;11.43;3.80;;;20.40;99.90;;;;;;5064059;28;20024;-80
2023/09/29 02:09:46;;;;;;;4.95;3.55;;;20.40;99.90;;;;;;5061235;28;20052;-82
2023/09/29 02:12:13;;;;;;;9.77;3.83;;;20.40;99.90;;;;;;5063842;28;20558;-81
2023/09/29 02:14:39;;;;;;;5.65;3.80;;;20.40;99.90;;;;;;5061132;28;20031;-79
2023/09/29 02:17:06;;;;;;;5.72;3.70;;;20.40;99.90;;;;;;5059724;28;20025;-79
2023/09/29 02:19:37;;;;;;;8.10;4.72;;;20.30;99.90;;;;;;5062352;28;20044;-80
2023/09/29 02:22:07;;;;;;;14.88;3.67;;;20.30;99.90;;;;;;5060450;28;20032;-79
2023/09/29 02:24:33;;;;;;;6.93;3.55;;;20.30;99.90;;;;;;5063670;28;20467;-80
2023/09/29 02:26:59;;;;;;;11.55;4.25;;;20.30;99.90;;;;;;5062847;28;20019;-81
2023/09/29 02:29:27;;;;;;;6.35;3.15;;;20.30;99.90;;;;;;5058244;28;20044;-80
2023/09/29 02:31:55;;;;;;;9.48;3.88;;;20.30;99.90;;;;;;5059970;28;20412;-80
2023/09/29 02:34:24;;;;;;;14.60;4.07;;;20.30;99.90;;;;;;5063688;28;20040;-80
2023/09/29 02:36:50;;;;;;;5.15;3.60;;;20.30;99.90;;;;;;5060825;28;20469;-79
2023/09/29 02:39:15;;;;;;;8.85;3.83;;;20.30;99.90;;;;;;5065682;28;20119;-80
2023/09/29 02:41:41;;;;;;;10.88;4.05;;;20.20;99.90;;;;;;5059833;28;20024;-80
2023/09/29 02:44:07;;;;;;;4.75;3.40;;;20.30;99.90;;;;;;5064800;28;20393;-79
2023/09/29 02:46:33;;;;;;;10.90;3.55;;;20.30;99.90;;;;;;5064437;28;20036;-80
2023/09/29 02:48:59;;;;;;;11.60;3.72;;;20.30;99.90;;;;;;5063484;28;20017;-81
2023/09/29 02:51:24;;;;;;;9.52;3.50;;;20.30;99.90;;;;;;5059744;28;20435;-82
2023/09/29 02:53:51;;;;;;;6.45;3.05;;;20.30;99.90;;;;;;5066791;28;20025;-81
2023/09/29 02:56:17;;;;;;;6.82;3.47;;;20.20;99.90;;;;;;5067298;28;20529;-81
2023/09/29 02:58:46;;;;;;;5.18;3.25;;;20.10;99.90;;;;;;5062363;28;20087;-81
2023/09/29 03:01:12;;;;;;;4.15;2.85;;;20.10;99.90;;;;;;5061353;28;20098;-82
2023/09/29 03:03:43;;;;;;;7.13;3.25;;;20.00;99.90;;;;;;5064836;28;20363;-82
2023/09/29 03:06:12;;;;;;;3.42;3.13;;;20.00;99.90;;;;;;5060130;28;20048;-81
2023/09/29 03:08:39;;;;;;;4.13;3.40;;;20.00;99.90;;;;;;5061843;28;20067;-81
2023/09/29 03:11:09;;;;;;;4.75;3.70;;;19.90;99.90;;;;;;5066429;28;20115;-81
2023/09/29 03:13:37;;;;;;;6.22;3.85;;;19.90;99.90;;;;;;5063534;28;20054;-81
2023/09/29 03:16:04;;;;;;;4.95;3.42;;;19.80;99.90;;;;;;5064560;28;20086;-81
2023/09/29 03:18:30;;;;;;;6.97;3.45;;;19.70;99.90;;;;;;5062185;28;20016;-83
2023/09/29 03:20:57;;;;;;;10.15;4.45;;;19.60;99.90;;;;;;5066579;28;20590;-81
2023/09/29 03:23:23;;;;;;;8.38;3.47;;;19.50;99.90;;;;;;5066964;28;20032;-81
2023/09/29 03:25:49;;;;;;;4.53;3.25;;;19.40;99.90;;;;;;5064469;28;20811;-81
2023/09/29 03:28:16;;;;;;;8.57;3.63;;;19.30;99.90;;;;;;5063327;28;20353;-81
2023/09/29 03:30:42;;;;;;;6.00;3.15;;;19.20;99.90;;;;;;5062906;28;20024;-81
2023/09/29 03:33:08;;;;;;;7.90;4.35;;;19.00;99.90;;;;;;5058783;28;20040;-81
2023/09/29 03:35:33;;;;;;;4.55;3.17;;;19.00;99.90;;;;;;5063465;28;20032;-80
2023/09/29 03:38:04;;;;;;;10.98;3.65;;;18.80;99.90;;;;;;5063556;28;20032;-80
2023/09/29 03:40:31;;;;;;;6.78;3.83;;;18.80;99.90;;;;;;5063119;28;20025;-80
2023/09/29 03:42:58;;;;;;;5.35;3.60;;;18.70;99.90;;;;;;5060218;28;20032;-81
2023/09/29 03:45:28;;;;;;;6.78;3.55;;;18.60;99.90;;;;;;5059088;28;20108;-82
2023/09/29 03:47:55;;;;;;;9.55;3.67;;;18.50;99.90;;;;;;5063842;28;20052;-82
2023/09/29 03:50:20;;;;;;;8.90;3.92;;;18.40;99.90;;;;;;5064211;28;20081;-81
2023/09/29 03:52:46;;;;;;;8.40;3.72;;;18.30;99.90;;;;;;5064453;28;20032;-81
2023/09/29 03:55:13;;;;;;;6.43;3.55;;;18.20;99.90;;;;;;5065734;28;20522;-81
2023/09/29 03:57:41;;;;;;;5.18;3.70;;;18.20;99.90;;;;;;5064955;28;20024;-81
2023/09/29 04:00:12;;;;;;;4.00;3.50;;;18.20;99.90;;;;;;5056112;28;20039;-81
2023/09/29 04:02:40;;;;;;;6.30;4.30;;;18.20;99.90;;;;;;5064690;28;20029;-81
2023/09/29 04:05:06;;;;;;;4.63;3.53;;;18.10;99.90;;;;;;5063266;28;20548;-82
2023/09/29 04:07:31;;;;;;;5.90;3.85;;;18.00;99.90;;;;;;5059589;28;20020;-81
2023/09/29 04:09:57;;;;;;;10.55;3.92;;;18.00;99.90;;;;;;5065581;28;20020;-81
2023/09/29 04:12:23;;;;;;;6.75;4.18;;;18.00;99.90;;;;;;5065903;28;20517;-81
2023/09/29 04:14:52;;;;;;;5.82;3.90;;;17.90;99.90;;;;;;5063672;28;20502;-83
2023/09/29 04:17:18;;;;;;;6.85;4.15;;;17.90;99.90;;;;;;5062467;28;20036;-80
2023/09/29 04:19:47;;;;;;;5.80;3.15;;;17.80;99.90;;;;;;5063169;28;20029;-82
2023/09/29 04:22:12;;;;;;;5.63;4.03;;;17.70;99.90;;;;;;5065501;28;20044;-81
2023/09/29 04:24:40;;;;;;;8.43;4.78;;;17.80;99.90;;;;;;5060492;28;20039;-81
2023/09/29 04:27:08;;;;;;;4.80;3.63;;;17.70;99.90;;;;;;5063659;28;20028;-82
2023/09/29 04:29:34;;;;;;;5.18;4.53;;;17.60;99.90;;;;;;5062209;28;20477;-81
2023/09/29 04:32:00;;;;;;;6.72;3.75;;;17.60;99.90;;;;;;5061732;28;20086;-81
2023/09/29 04:34:26;;;;;;;4.80;3.40;;;17.60;99.90;;;;;;5063830;28;20424;-80
2023/09/29 04:36:53;;;;;;;5.90;4.00;;;17.60;99.90;;;;;;5060825;28;20036;-81
2023/09/29 04:39:22;;;;;;;5.18;3.67;;;17.60;99.90;;;;;;5065236;28;20124;-83
2023/09/29 04:41:48;;;;;;;4.30;3.60;;;17.50;99.90;;;;;;5064231;28;20448;-81
2023/09/29 04:44:16;;;;;;;6.78;4.30;;;17.50;99.90;;;;;;5061346;28;20052;-83
2023/09/29 04:46:42;;;;;;;5.25;4.05;;;17.50;99.90;;;;;;5055378;28;20039;-82
2023/09/29 04:49:08;;;;;;;6.68;3.83;;;17.50;99.90;;;;;;5061193;28;20025;-82
2023/09/29 04:51:34;;;;;;;7.93;4.10;;;17.40;99.90;;;;;;5062242;28;20411;-82
2023/09/29 04:54:00;;;;;;;11.02;4.65;;;17.40;99.90;;;;;;5062353;28;20047;-81
2023/09/29 04:56:26;;;;;;;6.45;4.30;;;17.40;99.90;;;;;;5064798;28;20059;-81
2023/09/29 04:58:52;;;;;;;6.22;4.13;;;17.40;99.90;;;;;;5060506;28;20434;-83
2023/09/29 05:01:18;;;;;;;5.70;3.55;;;17.30;99.90;;;;;;5059369;28;20025;-83
2023/09/29 05:03:47;;;;;;;6.25;3.67;;;17.30;99.90;;;;;;5058132;28;20511;-83
2023/09/29 05:06:14;;;;;;;9.85;4.07;;;17.30;99.90;;;;;;5063606;28;20119;-82
2023/09/29 05:08:39;;;;;;;5.55;3.90;;;17.30;99.90;;;;;;5061313;28;20069;-81
2023/09/29 05:11:05;;;;;;;7.65;4.40;;;17.40;99.90;;;;;;5061596;28;20461;-83
2023/09/29 05:13:32;;;;;;;6.53;4.38;;;17.40;99.90;;;;;;5064194;28;20032;-82
2023/09/29 05:16:00;;;;;;;7.78;4.38;;;17.40;99.90;;;;;;5058074;28;20028;-82
2023/09/29 05:18:27;;;;;;;4.72;3.33;;;17.50;99.90;;;;;;5058145;28;20029;-82
2023/09/29 05:20:53;;;;;;;6.38;4.53;;;17.50;99.90;;;;;;5061876;28;20077;-82
2023/09/29 05:23:19;;;;;;;6.30;3.90;;;17.50;99.90;;;;;;5061077;28;20110;-82
2023/09/29 05:25:46;;;;;;;12.45;4.15;;;17.50;99.90;;;;;;5061669;28;20028;-84
2023/09/29 05:28:13;;;;;;;4.72;3.75;;;17.60;99.90;;;;;;5052906;28;20512;-82
2023/09/29 05:30:39;;;;;;;6.88;3.85;;;17.60;99.90;;;;;;5055982;28;20103;-82
2023/09/29 05:33:05;;;;;;;5.65;3.88;;;17.60;99.90;;;;;;5057762;28;20040;-82
2023/09/29 05:35:31;;;;;;;8.25;4.38;;;17.60;99.90;;;;;;5063469;28;20031;-82
2023/09/29 05:37:57;;;;;;;5.97;4.20;;;17.60;99.90;;;;;;5057216;28;20039;-82
2023/09/29 05:40:22;;;;;;;14.57;4.00;;;17.60;99.90;;;;;;5061913;28;20028;-82
2023/09/29 05:42:51;;;;;;;4.32;3.50;;;17.60;99.90;;;;;;5058680;28;20024;-82
2023/09/29 05:45:17;;;;;;;8.77;3.50;;;17.70;99.90;;;;;;5056688;28;20035;-81
2023/09/29 05:47:43;;;;;;;5.57;3.80;;;17.70;99.90;;;;;;5060011;28;20115;-81
2023/09/29 05:50:10;;;;;;;5.38;3.47;;;17.70;99.90;;;;;;5060126;28;20073;-83
2023/09/29 05:52:35;;;;;;;5.45;4.20;;;17.70;99.90;;;;;;5060767;28;20040;-83
2023/09/29 05:55:02;;;;;;;5.47;3.80;;;17.70;99.90;;;;;;5057589;28;20114;-82
2023/09/29 05:57:27;;;;;;;9.27;4.07;;;17.70;99.90;;;;;;5055945;28;20032;-81
2023/09/29 05:59:56;;;;;;;8.00;4.13;;;17.70;99.90;;;;;;5069232;28;20024;-81
2023/09/29 06:02:24;;;;;;;8.25;4.30;;;17.70;99.90;;;;;;5065538;28;20029;-82
2023/09/29 06:04:50;;;;;;;5.78;4.10;;;17.80;99.90;;;;;;5064238;28;20111;-81
2023/09/29 06:07:15;;;;;;;4.75;3.30;;;17.80;99.90;;;;;;5064648;28;20477;-81
2023/09/29 06:09:41;;;;;;;6.75;3.75;;;17.80;99.90;;;;;;5060702;28;20523;-82
2023/09/29 06:12:07;;;;;;;4.75;3.72;;;17.80;99.90;;;;;;5062359;28;20036;-82
2023/09/29 06:14:32;;;;;;;6.32;4.53;;;17.90;99.90;;;;;;5061452;28;20384;-82
2023/09/29 06:16:59;;;;;;;10.98;4.28;;;17.90;99.90;;;;;;5058049;28;20063;-81
2023/09/29 06:19:25;;;;;;;6.53;4.03;;;18.00;99.90;;;;;;5065625;28;20031;-82
2023/09/29 06:21:50;;;;;;;6.50;4.20;;;18.00;99.90;;;;;;5060077;28;20032;-81
2023/09/29 06:24:16;;;;;;;9.20;4.00;;;18.00;99.90;;;;;;5061004;28;20027;-82
2023/09/29 06:26:42;;;;;;;8.68;4.25;;;18.00;99.90;;;;;;5060902;28;20029;-81
2023/09/29 06:29:08;;;;;;;7.47;4.40;;;18.10;99.90;;;;;;5064619;28;20400;-81
2023/09/29 06:31:34;;;;;;;10.05;5.20;;;18.00;99.90;;;;;;5064099;28;20266;-82
2023/09/29 06:33:59;;;;;;;6.57;5.00;;;18.10;99.90;;;;;;5066231;28;20037;-82
2023/09/29 06:36:25;;;;;;;9.23;4.53;;;18.10;99.90;;;;;;5063397;28;20031;-81
2023/09/29 06:38:50;;;;;;;12.68;5.47;;;18.10;99.90;;;;;;5065169;28;20039;-81
2023/09/29 06:41:16;;;;;;;5.90;4.22;;;18.10;99.90;;;;;;5063902;28;20081;-83
2023/09/29 06:43:43;;;;;;;5.18;3.65;;;18.10;99.90;;;;;;5056818;28;20028;-83
2023/09/29 06:46:08;;;;;;;6.35;4.32;;;18.10;99.90;;;;;;5062476;28;20025;-79
2023/09/29 06:48:34;;;;;;;8.35;4.72;;;18.10;99.90;;;;;;5063286;28;20466;-79
2023/09/29 06:51:00;;;;;;;8.68;4.45;;;18.20;99.90;;;;;;5062409;28;20032;-79
2023/09/29 06:53:28;;;;;;;9.43;5.10;;;18.10;99.90;;;;;;5062789;28;21704;-79
2023/09/29 06:55:54;;;;;;;11.55;4.65;;;18.10;99.90;;;;;;5059169;28;20494;-80
2023/09/29 06:58:20;;;;;;;8.85;4.97;;;18.10;99.90;;;;;;5065193;28;20170;-80
2023/09/29 07:00:46;;;;;;;7.32;5.03;;;18.20;99.90;;;;;;5059911;28;20043;-79
2023/09/29 07:03:12;;;;;;;4.80;4.20;;;18.20;99.90;;;;;;5064780;28;20025;-79
2023/09/29 07:05:38;;;;;;;13.15;5.65;;;18.10;99.90;;;;;;5064759;28;20536;-79
2023/09/29 07:08:05;;;;;;;6.88;4.50;;;18.10;99.90;;;;;;5061636;28;20120;-80
2023/09/29 07:10:31;;;;;;;12.85;5.90;;;18.10;99.90;;;;;;5064057;28;20389;-80
2023/09/29 07:12:56;;;;;;;7.97;4.85;;;18.20;99.90;;;;;;5063157;28;20142;-80
2023/09/29 07:15:22;;;;;;;6.10;4.07;;;18.20;99.90;;;;;;5061117;28;20029;-79
2023/09/29 07:17:47;;;;;;;9.02;4.38;;;18.20;99.90;;;;;;5062800;28;20435;-79
2023/09/29 07:20:13;;;;;;;8.73;5.13;;;18.20;99.90;;;;;;5061606;28;20028;-79
2023/09/29 07:22:39;;;;;;;8.57;4.93;;;18.30;99.90;;;;;;5064007;28;20125;-79
2023/09/29 07:25:05;;;;;;;8.75;4.60;;;18.20;99.90;;;;;;5057701;28;20029;-80
2023/09/29 07:27:31;;;;;;;8.40;4.18;;;18.30;99.90;;;;;;5062349;28;20053;-79
2023/09/29 07:29:57;;;;;;;12.60;4.82;;;18.50;99.90;;;;;;5065189;28;20234;-80
2023/09/29 07:32:26;;;;;;;20.75;4.88;;;18.60;99.90;;;;;;5070505;28;20143;-79
2023/09/29 07:34:51;;;;;;;8.68;4.20;;;18.70;99.90;;;;;;5067042;28;20487;-80
2023/09/29 07:37:17;;;;;;;5.70;4.30;;;18.80;99.90;;;;;;5068349;28;20032;-80
2023/09/29 07:39:43;;;;;;;12.27;4.40;;;18.90;99.90;;;;;;5073267;28;20024;-79
2023/09/29 07:42:09;;;;;;;7.13;4.13;;;18.90;99.90;;;;;;5058924;28;20495;-78
2023/09/29 07:44:35;;;;;;;9.90;4.18;;;19.00;99.90;;;;;;5059472;28;20107;-81
2023/09/29 07:47:01;;;;;;;8.45;4.78;;;19.10;99.90;;;;;;5080647;28;20037;-79
2023/09/29 07:49:27;;;;;;;11.45;4.38;;;19.20;99.90;;;;;;5069127;28;20648;-80
2023/09/29 07:51:53;;;;;;;7.47;4.00;;;19.30;99.90;;;;;;5066873;28;20032;-80
2023/09/29 07:54:20;;;;;;;12.38;4.35;;;19.30;99.90;;;;;;5067666;28;20412;-79
2023/09/29 07:56:49;;;;;;;5.75;3.55;;;19.30;99.90;;;;;;5062901;28;20115;-80
2023/09/29 07:59:15;;;;;;;9.20;4.55;;;19.30;99.90;;;;;;5066097;28;20396;-79
2023/09/29 08:01:43;;;;;;;8.25;3.38;;;19.30;99.90;;;;;;5068368;28;20028;-80
2023/09/29 08:04:10;;;;;;;8.50;3.92;;;19.30;99.90;;;;;;5068633;28;20032;-81
2023/09/29 08:06:38;;;;;;;6.13;3.85;;;19.30;99.90;;;;;;5068109;28;20111;-82
2023/09/29 08:09:06;;;;;;;8.13;3.92;;;19.30;99.90;;;;;;5068847;28;20035;-81
2023/09/29 08:11:32;;;;;;;6.90;3.92;;;19.40;99.90;;;;;;5067866;28;20407;-80
2023/09/29 08:13:57;;;;;;;6.10;4.68;;;19.40;99.90;;;;;;5066381;28;20039;-79
2023/09/29 08:16:24;;;;;;;9.30;5.53;;;19.30;99.90;;;;;;5067591;28;20039;-80
2023/09/29 08:18:49;;;;;;;8.45;4.78;;;19.30;99.90;;;;;;5067837;28;20039;-80
2023/09/29 08:21:15;;;;;;;8.65;5.40;;;19.30;99.90;;;;;;5067551;28;20032;-79
2023/09/29 08:23:41;;;;;;;11.50;5.60;;;19.30;99.90;;;;;;5062817;28;20163;-81
2023/09/29 08:26:06;;;;;;;7.63;5.88;;;19.20;99.90;;;;;;5062871;28;20032;-79
2023/09/29 08:28:32;;;;;;;12.68;7.32;;;19.20;99.90;;;;;;5066936;28;20051;-80
2023/09/29 08:30:58;;;;;;;10.30;7.05;;;19.20;99.90;;;;;;5063463;28;20446;-80
2023/09/29 08:33:27;;;;;;;14.32;7.22;;;19.20;99.90;;;;;;5065712;28;20070;-80
2023/09/29 08:35:55;;;;;;;13.10;6.90;;;19.20;99.90;;;;;;5064037;28;20020;-80
2023/09/29 08:38:22;;;;;;;13.15;6.72;;;19.20;99.90;;;;;;5062782;28;20104;-80
2023/09/29 08:40:54;;;;;;;12.52;6.57;;;19.20;99.90;;;;;;5063043;28;20028;-80
2023/09/29 08:43:21;;;;;;;14.55;6.95;;;19.10;99.90;;;;;;5065112;28;20120;-79
2023/09/29 08:45:49;;;;;;;11.88;6.30;;;19.20;99.90;;;;;;5064342;28;20032;-80
2023/09/29 08:48:16;;;;;;;10.73;5.53;;;19.10;99.90;;;;;;5064740;28;20119;-81
2023/09/29 08:50:45;;;;;;;7.95;5.10;;;19.10;99.90;;;;;;5062359;28;20086;-80
2023/09/29 08:53:12;;;;;;;12.88;4.78;;;19.10;99.90;;;;;;5061810;28;20123;-80
2023/09/29 08:55:38;;;;;;;8.27;4.70;;;19.10;99.90;;;;;;5064925;28;20021;-80
2023/09/29 08:58:05;;;;;;;8.18;4.72;;;19.20;99.90;;;;;;5064692;28;20036;-80
2023/09/29 09:00:32;;;;;;;9.00;5.20;;;19.20;99.90;;;;;;5070892;28;20029;-79
2023/09/29 09:03:00;;;;;;;6.88;4.50;;;19.20;99.90;;;;;;5063583;28;20035;-80
2023/09/29 09:05:26;;;;;;;7.65;4.43;;;19.20;99.90;;;;;;5063681;28;20032;-80
2023/09/29 09:07:54;;;;;;;8.40;5.10;;;19.20;99.90;;;;;;5060782;28;20028;-81
2023/09/29 09:10:31;;;;;;;6.45;4.47;;;19.30;99.90;;;;;;5064646;28;20562;-81
2023/09/29 09:12:57;;;;;;;8.18;5.18;;;19.30;99.90;;;;;;5065269;28;20400;-80
2023/09/29 09:15:26;;;;;;;11.57;5.30;;;19.30;99.90;;;;;;5062716;28;20029;-80
2023/09/29 09:17:52;;;;;;;8.00;5.28;;;19.30;99.90;;;;;;5065317;28;20025;-80
2023/09/29 09:20:20;;;;;;;17.77;5.47;;;19.40;99.90;;;;;;5069567;28;20024;-79
2023/09/29 09:23:00;;;;;;;6.95;4.78;;;19.40;99.90;;;;;;5067053;28;20044;-80
2023/09/29 09:25:38;;;;;;;16.20;6.28;;;19.50;99.90;;;;;;5060447;28;20028;-80
2023/09/29 09:28:05;;;;;;;13.35;5.63;;;19.50;99.90;;;;;;5062103;28;20044;-80
2023/09/29 09:30:35;;;;;;;8.35;5.38;;;19.50;99.90;;;;;;5067891;28;20358;-79
2023/09/29 09:33:03;;;;;;;9.35;4.97;;;19.50;99.90;;;;;;5063199;28;20040;-80
2023/09/29 09:35:30;;;;;;;11.23;5.03;;;19.50;99.90;;;;;;5063557;28;20040;-79
2023/09/29 09:37:59;;;;;;;8.43;5.35;;;19.50;99.90;;;;;;5064758;28;20495;-81
2023/09/29 09:40:27;;;;;;;10.70;5.10;;;19.50;99.90;;;;;;5062034;28;21091;-81
2023/09/29 09:43:02;;;;;;;15.75;5.75;;;19.50;99.90;;;;;;5064035;28;20524;-80
2023/09/29 09:45:43;;;;;;;7.10;3.97;;;19.50;99.90;;;;;;5060717;28;20052;-80
2023/09/29 09:48:14;;;;;;;12.98;5.30;;;19.50;99.90;;;;;;5063031;28;20507;-81
2023/09/29 09:50:43;;;;;;;11.65;5.30;;;19.60;99.90;;;;;;5061097;28;20048;-81
2023/09/29 09:53:11;;;;;;;12.35;4.57;;;19.60;99.90;;;;;;5067058;28;20527;-81
2023/09/29 09:56:00;;;;;;;9.30;4.32;;;19.60;99.90;;;;;;5066724;28;20033;-81
2023/09/29 09:58:27;;;;;;;20.27;5.63;;;19.50;99.90;;;;;;5062607;28;20021;-81
2023/09/29 10:00:55;;;;;;;6.18;4.05;;;19.60;99.90;;;;;;5063733;28;20031;-80
2023/09/29 10:03:23;;;;;;;6.72;4.15;;;19.50;99.90;;;;;;5065896;28;20035;-81
2023/09/29 10:05:52;;;;;;;8.90;4.13;;;19.50;99.90;;;;;;5065150;28;20736;-80
2023/09/29 10:08:29;;;;;;;14.02;4.55;;;19.50;99.90;;;;;;5060457;28;20074;-80
2023/09/29 10:11:10;;;;;;;12.70;4.38;;;19.60;99.90;;;;;;5064785;28;20484;-80
2023/09/29 10:13:37;;;;;;;9.90;4.65;;;19.60;99.90;;;;;;5061497;28;20044;-81
2023/09/29 10:16:05;;;;;;;9.32;4.05;;;19.70;99.90;;;;;;5058869;28;20060;-81
2023/09/29 10:18:35;;;;;;;7.40;4.20;;;19.70;99.90;;;;;;5063664;28;20073;-81
2023/09/29 10:21:09;;;;;;;6.80;4.63;;;19.80;99.90;;;;;;5063818;28;20453;-81
2023/09/29 10:23:50;;;;;;;8.10;4.60;;;19.90;99.90;;;;;;5060650;28;20112;-83
2023/09/29 10:26:16;;;;;;;7.30;4.10;;;19.90;99.90;;;;;;5061003;28;20135;-79
2023/09/29 10:28:45;;;;;;;9.63;4.60;;;20.00;99.90;;;;;;5064461;28;20036;-81
2023/09/29 10:31:35;;;;;;;8.80;3.58;;;20.10;99.90;;;;;;5055921;28;20021;-82
2023/09/29 10:34:01;;;;;;;7.18;4.28;;;20.20;99.90;;;;;;5064438;28;20100;-81
2023/09/29 10:36:30;;;;;;;6.70;4.07;;;20.30;99.90;;;;;;5061071;28;20119;-80
2023/09/29 10:38:58;;;;;;;13.02;4.03;;;20.40;99.90;;;;;;5065181;28;20046;-81
2023/09/29 10:41:25;;;;;;;9.90;4.15;;;20.50;99.90;;;;;;5065462;28;20025;-82
2023/09/29 10:43:57;;;;;;;7.95;3.38;;;20.50;99.90;;;;;;5065741;28;20098;-81
2023/09/29 10:46:24;;;;;;;4.38;2.97;;;20.60;99.90;;;;;;5063705;28;20532;-81
2023/09/29 10:48:52;;;;;;;4.95;3.60;;;20.60;99.90;;;;;;5069080;28;20012;-81
2023/09/29 10:51:22;;;;;;;7.78;3.35;;;20.50;99.90;;;;;;5065275;28;20036;-82
2023/09/29 10:54:07;;;;;;;6.97;4.05;;;20.50;99.90;;;;;;5061813;28;20032;-84
2023/09/29 10:56:35;;;;;;;7.57;4.00;;;20.50;99.90;;;;;;5061236;28;20044;-81
2023/09/29 10:59:06;;;;;;;5.13;3.38;;;20.50;99.90;;;;;;5065391;28;20036;-82
2023/09/29 11:01:33;;;;;;;8.43;3.80;;;20.50;99.90;;;;;;5067039;28;20036;-82
2023/09/29 11:04:05;;;;;;;12.77;4.03;;;20.50;99.90;;;;;;5069479;28;20028;-81
2023/09/29 11:06:43;;;;;;;4.45;3.55;;;20.50;99.90;;;;;;5069413;28;20028;-81
2023/09/29 11:09:16;;;;;;;5.10;3.58;;;20.50;99.90;;;;;;5068834;28;20035;-82
2023/09/29 11:11:42;;;;;;;4.10;3.58;;;20.40;99.90;;;;;;5058198;28;20502;-82
2023/09/29 11:14:08;;;;;;;5.53;3.85;;;20.40;99.90;;;;;;5067794;28;20028;-81
2023/09/29 11:16:36;;;;;;;6.00;3.90;;;20.40;99.90;;;;;;5066462;28;20017;-82
2023/09/29 11:19:14;;;;;;;6.57;3.55;;;20.50;99.90;;;;;;5069627;28;20020;-81
2023/09/29 11:21:41;;;;;;;8.85;4.13;;;20.40;99.90;;;;;;5066416;28;20024;-82
2023/09/29 11:24:13;;;;;;;7.80;3.67;;;20.40;99.90;;;;;;5067398;28;20480;-81
2023/09/29 11:26:46;;;;;;;8.27;4.10;;;20.50;99.90;;;;;;5064810;28;20036;-81
2023/09/29 11:29:27;;;;;;;9.23;4.30;;;20.50;99.90;;;;;;5063960;28;20148;-82
2023/09/29 11:31:54;;;;;;;9.43;4.07;;;20.60;99.90;;;;;;5055821;28;20194;-81
2023/09/29 11:34:23;;;;;;;6.72;4.10;;;20.60;99.90;;;;;;5063302;28;20369;-83
2023/09/29 11:36:51;;;;;;;4.45;3.53;;;20.70;99.90;;;;;;5060079;28;20024;-81
2023/09/29 11:39:20;;;;;;;8.18;4.90;;;20.80;99.90;;;;;;5065704;28;20028;-81
2023/09/29 11:41:46;;;;;;;6.00;3.80;;;20.80;99.90;;;;;;5062462;28;20032;-82
2023/09/29 11:44:12;;;;;;;12.20;4.35;;;20.90;99.90;;;;;;5065442;28;20042;-81
2023/09/29 11:46:39;;;;;;;6.13;3.80;;;20.90;99.90;;;;;;5061030;28;20156;-81
2023/09/29 11:49:05;;;;;;;7.78;4.28;;;20.90;99.90;;;;;;5061571;28;20232;-81
2023/09/29 11:51:31;;;;;;;10.10;4.40;;;20.90;99.90;;;;;;5057626;28;20031;-82
2023/09/29 11:53:57;;;;;;;14.05;5.45;;;20.90;99.90;;;;;;5064076;28;20604;-83
2023/09/29 11:56:22;;;;;;;7.85;3.83;;;20.90;99.90;;;;;;5065622;28;20032;-81
2023/09/29 11:58:49;;;;;;;10.30;5.25;;;20.90;99.90;;;;;;5064257;28;20296;-82
2023/09/29 12:01:17;;;;;;;6.47;4.63;;;21.00;99.90;;;;;;5060910;28;20121;-82
2023/09/29 12:03:43;;;;;;;8.80;4.63;;;21.00;99.90;;;;;;5063506;28;20024;-81
2023/09/29 12:06:09;;;;;;;12.27;3.97;;;21.00;99.90;;;;;;5063358;28;20546;-82
2023/09/29 12:08:35;;;;;;;9.48;4.47;;;21.10;99.90;;;;;;5068291;28;20020;-81
2023/09/29 12:11:05;;;;;;;13.30;4.68;;;21.10;99.90;;;;;;5059505;28;20111;-82
2023/09/29 12:13:33;;;;;;;6.82;4.50;;;21.20;99.90;;;;;;5064428;28;20056;-84
2023/09/29 12:16:01;;;;;;;5.88;3.65;;;21.30;99.90;;;;;;5068267;28;20075;-81
2023/09/29 12:18:26;;;;;;;6.88;4.35;;;21.30;99.90;;;;;;5062251;28;20111;-81
2023/09/29 12:20:53;;;;;;;11.80;4.32;;;21.40;99.90;;;;;;5067563;28;20103;-82
2023/09/29 12:23:19;;;;;;;14.32;4.63;;;21.40;99.90;;;;;;5062873;28;20548;-82
2023/09/29 12:25:45;;;;;;;7.57;4.82;;;21.40;99.90;;;;;;5061377;28;20115;-81
2023/09/29 12:28:10;;;;;;;6.82;4.22;;;21.50;99.90;;;;;;5064585;28;20047;-83
2023/09/29 12:30:36;;;;;;;5.32;4.38;;;21.50;99.90;;;;;;5064378;28;20028;-82
2023/09/29 12:33:02;;;;;;;5.28;3.53;;;21.50;99.90;;;;;;5065174;28;20040;-83
2023/09/29 12:35:27;;;;;;;8.05;4.63;;;21.60;99.90;;;;;;5062007;28;20052;-82
2023/09/29 12:37:53;;;;;;;19.13;9.60;;;21.70;99.90;;;;;;5067499;28;20037;-81
2023/09/29 12:40:18;;;;;;;15.00;4.90;;;21.80;99.90;;;;;;5064831;28;20415;-81
2023/09/29 12:42:47;;;;;;;9.68;4.07;;;21.90;99.90;;;;;;5066932;28;20040;-82
2023/09/29 12:45:21;;;;;;;12.00;4.10;;;22.00;99.90;;;;;;5067803;28;20031;-82
2023/09/29 12:47:48;;;;;;;10.25;4.53;;;22.00;99.90;;;;;;5066535;28;20346;-83